createdAt,value
2019-04-14T00:00:59.510Z,0.00
2019-04-14T00:01:58.812Z,0.00
2019-04-14T00:02:58.460Z,0.00
2019-04-14T00:03:58.709Z,0.00
2019-04-14T00:04:59.439Z,0.00
2019-04-14T00:05:58.421Z,0.00
2019-04-14T00:06:59.165Z,0.00
2019-04-14T00:07:58.385Z,0.00
2019-04-14T00:08:58.655Z,0.00
2019-04-14T00:09:58.531Z,0.00
2019-04-14T00:10:59.416Z,0.00
2019-04-14T00:11:59.104Z,0.00
2019-04-14T00:12:58.419Z,0.00
2019-04-14T00:13:58.860Z,0.00
2019-04-14T00:14:58.358Z,0.00
2019-04-14T00:15:58.894Z,0.00
2019-04-14T00:16:59.565Z,0.00
2019-04-14T00:17:59.000Z,0.00
2019-04-14T00:18:58.351Z,0.00
2019-04-14T00:19:58.824Z,0.00
2019-04-14T00:20:58.277Z,0.00
2019-04-14T00:21:58.680Z,0.00
2019-04-14T00:22:58.299Z,0.00
2019-04-14T00:23:58.829Z,0.00
2019-04-14T00:24:59.738Z,0.00
2019-04-14T00:25:58.649Z,0.00
2019-04-14T00:26:59.465Z,0.00
2019-04-14T00:27:58.614Z,0.00
2019-04-14T00:28:58.217Z,0.00
2019-04-14T00:29:58.966Z,0.00
2019-04-14T00:30:58.236Z,0.00
2019-04-14T00:31:58.780Z,0.00
2019-04-14T00:32:59.390Z,0.00
2019-04-14T00:33:58.595Z,0.00
2019-04-14T00:34:59.287Z,0.00
2019-04-14T00:35:58.123Z,0.00
2019-04-14T00:36:58.851Z,0.00
2019-04-14T00:37:59.464Z,0.00
2019-04-14T00:38:58.489Z,0.00
2019-04-14T00:39:58.035Z,0.00
2019-04-14T00:40:58.338Z,0.00
2019-04-14T00:42:01.375Z,0.00
2019-04-14T00:42:58.252Z,0.00
2019-04-14T00:43:59.157Z,0.00
2019-04-14T00:44:58.135Z,0.00
2019-04-14T00:46:00.536Z,0.00
2019-04-14T00:46:58.238Z,0.00
2019-04-14T00:48:03.417Z,0.00
2019-04-14T00:48:58.914Z,0.00
2019-04-14T00:49:57.953Z,0.00
2019-04-14T00:50:58.150Z,0.00
2019-04-14T00:51:59.197Z,0.00
2019-04-14T00:52:58.842Z,0.00
2019-04-14T00:53:58.055Z,0.00
2019-04-14T00:54:58.698Z,0.00
2019-04-14T00:55:57.922Z,0.00
2019-04-14T00:56:58.486Z,0.00
2019-04-14T00:57:57.908Z,0.00
2019-04-14T00:58:58.253Z,0.00
2019-04-14T00:59:57.929Z,0.00
2019-04-14T01:00:58.065Z,0.00
2019-04-14T01:01:59.077Z,0.00
2019-04-14T01:02:58.015Z,0.00
2019-04-14T01:03:59.073Z,0.00
2019-04-14T01:04:57.770Z,0.00
2019-04-14T01:05:58.987Z,0.00
2019-04-14T01:06:57.732Z,0.00
2019-04-14T01:07:58.764Z,0.00
2019-04-14T01:08:57.714Z,0.00
2019-04-14T01:09:57.782Z,0.00
2019-04-14T01:10:58.358Z,0.00
2019-04-14T01:11:57.823Z,0.00
2019-04-14T01:12:58.160Z,0.00
2019-04-14T01:13:57.721Z,0.00
2019-04-14T01:14:58.214Z,0.00
2019-04-14T01:16:05.240Z,0.00
2019-04-14T01:16:58.643Z,0.00
2019-04-14T01:18:58.658Z,0.00
2019-04-14T01:19:57.646Z,0.00
2019-04-14T01:20:57.876Z,0.00
2019-04-14T01:21:58.788Z,0.00
2019-04-14T01:22:57.550Z,0.00
2019-04-14T01:24:59.898Z,0.00
2019-04-14T01:25:58.455Z,0.00
2019-04-14T01:26:57.538Z,0.00
2019-04-14T01:28:59.335Z,0.00
2019-04-14T01:29:58.168Z,0.00
2019-04-14T01:30:57.473Z,0.00
2019-04-14T01:31:57.914Z,0.00
2019-04-14T01:32:57.448Z,0.00
2019-04-14T01:33:57.640Z,0.00
2019-04-14T01:34:57.426Z,0.00
2019-04-14T01:35:57.455Z,0.00
2019-04-14T01:36:58.530Z,0.00
2019-04-14T01:37:57.480Z,0.00
2019-04-14T01:38:58.136Z,0.00
2019-04-14T01:39:58.596Z,0.00
2019-04-14T01:40:57.765Z,0.00
2019-04-14T01:41:58.573Z,0.00
2019-04-14T01:42:57.364Z,0.00
2019-04-14T01:43:58.250Z,0.00
2019-04-14T01:44:57.317Z,0.00
2019-04-14T01:46:07.200Z,0.00
2019-04-14T01:46:58.827Z,0.00
2019-04-14T01:47:57.577Z,0.00
2019-04-14T01:48:58.529Z,0.00
2019-04-14T01:49:57.421Z,0.00
2019-04-14T01:50:58.328Z,0.00
2019-04-14T01:51:57.379Z,0.00
2019-04-14T01:52:57.268Z,0.00
2019-04-14T01:53:57.514Z,0.00
2019-04-14T01:54:58.268Z,0.00
2019-04-14T01:55:57.283Z,0.00
2019-04-14T01:56:58.120Z,0.00
2019-04-14T01:57:57.348Z,0.00
2019-04-14T01:58:57.943Z,0.00
2019-04-14T01:59:57.205Z,0.00
2019-04-14T02:00:57.586Z,0.00
2019-04-14T02:01:57.241Z,0.00
2019-04-14T02:02:57.613Z,0.00
2019-04-14T02:03:58.406Z,0.00
2019-04-14T02:04:57.560Z,0.00
2019-04-14T02:05:58.288Z,0.00
2019-04-14T02:06:57.420Z,0.00
2019-04-14T02:07:57.980Z,0.00
2019-04-14T02:08:57.093Z,0.00
2019-04-14T02:09:57.559Z,0.00
2019-04-14T02:10:57.046Z,0.00
2019-04-14T02:12:58.489Z,0.00
2019-04-14T02:13:57.254Z,0.00
2019-04-14T02:14:58.040Z,0.00
2019-04-14T02:15:57.385Z,0.00
2019-04-14T02:16:59.532Z,0.00
2019-04-14T02:17:57.059Z,0.00
2019-04-14T02:18:58.475Z,0.00
2019-04-14T02:19:57.038Z,0.00
2019-04-14T02:20:57.902Z,0.00
2019-04-14T02:21:58.343Z,0.00
2019-04-14T02:22:57.347Z,0.00
2019-04-14T02:24:59.161Z,0.00
2019-04-14T02:25:57.961Z,0.00
2019-04-14T02:26:57.083Z,0.00
2019-04-14T02:27:57.979Z,0.00
2019-04-14T02:28:57.151Z,0.00
2019-04-14T02:29:58.122Z,0.00
2019-04-14T02:31:10.470Z,0.00
2019-04-14T02:32:27.287Z,0.00
2019-04-14T02:33:33.769Z,0.00
2019-04-14T02:34:41.609Z,0.00
2019-04-14T02:35:32.704Z,0.00
2019-04-14T02:36:32.652Z,0.00
2019-04-14T02:39:42.065Z,0.00
2019-04-14T02:40:28.658Z,0.00
2019-04-14T02:41:33.738Z,0.00
2019-04-14T02:42:36.801Z,0.00
2019-04-14T02:43:29.359Z,0.00
2019-04-14T02:45:26.833Z,0.00
2019-04-14T02:46:26.358Z,0.00
2019-04-14T02:47:47.281Z,0.00
2019-04-14T02:48:38.195Z,0.00
2019-04-14T02:49:27.419Z,0.00
2019-04-14T02:50:28.009Z,0.00
2019-04-14T02:52:29.994Z,0.00
2019-04-14T02:53:32.539Z,0.00
2019-04-14T02:54:48.034Z,0.00
2019-04-14T02:55:23.685Z,0.00
2019-04-14T02:56:36.626Z,0.00
2019-04-14T02:58:32.717Z,0.00
2019-04-14T02:59:23.008Z,0.00
2019-04-14T03:00:24.061Z,0.00
2019-04-14T03:01:38.737Z,0.00
2019-04-14T03:02:38.559Z,0.00
2019-04-14T03:04:35.173Z,0.00
2019-04-14T03:05:26.707Z,0.00
2019-04-14T03:06:17.857Z,0.00
2019-04-14T03:07:40.287Z,0.00
2019-04-14T03:08:25.752Z,0.00
2019-04-14T03:09:28.890Z,0.00
2019-04-14T03:10:28.114Z,0.00
2019-04-14T03:11:25.800Z,0.00
2019-04-14T03:12:24.837Z,0.00
2019-04-14T03:14:23.324Z,0.00
2019-04-14T03:15:25.647Z,0.00
2019-04-14T03:16:33.005Z,0.00
2019-04-14T03:17:31.501Z,0.00
2019-04-14T03:19:29.912Z,0.00
2019-04-14T03:21:34.813Z,0.00
2019-04-14T03:22:33.101Z,0.00
2019-04-14T03:23:30.851Z,0.00
2019-04-14T03:24:35.888Z,0.00
2019-04-14T03:25:09.745Z,0.00
2019-04-14T03:26:17.682Z,0.00
2019-04-14T03:27:39.942Z,0.00
2019-04-14T03:28:27.205Z,0.00
2019-04-14T03:29:26.814Z,0.00
2019-04-14T03:30:46.013Z,0.00
2019-04-14T03:31:49.514Z,0.00
2019-04-14T03:32:48.119Z,0.00
2019-04-14T03:35:58.573Z,0.00
2019-04-14T03:37:45.132Z,0.00
2019-04-14T03:38:24.589Z,0.00
2019-04-14T03:39:27.238Z,0.00
2019-04-14T03:40:28.057Z,0.00
2019-04-14T03:42:29.302Z,0.00
2019-04-14T03:43:25.237Z,0.00
2019-04-14T03:44:28.633Z,0.00
2019-04-14T03:45:25.751Z,0.00
2019-04-14T03:46:25.366Z,0.00
2019-04-14T03:47:25.486Z,0.00
2019-04-14T03:48:45.266Z,0.00
2019-04-14T03:49:26.290Z,0.00
2019-04-14T03:50:21.229Z,0.00
2019-04-14T03:51:44.608Z,0.00
2019-04-14T03:52:22.249Z,0.00
2019-04-14T03:53:27.651Z,0.00
2019-04-14T03:54:15.609Z,0.00
2019-04-14T03:56:02.434Z,0.00
2019-04-14T03:56:57.651Z,0.00
2019-04-14T03:58:57.689Z,0.00
2019-04-14T03:59:56.369Z,0.00
2019-04-14T04:00:55.914Z,0.00
2019-04-14T04:01:56.571Z,0.00
2019-04-14T04:02:55.852Z,0.00
2019-04-14T04:03:56.447Z,0.00
2019-04-14T04:04:55.834Z,0.00
2019-04-14T04:05:56.429Z,0.00
2019-04-14T04:06:55.845Z,0.00
2019-04-14T04:07:56.061Z,0.00
2019-04-14T04:08:55.791Z,0.00
2019-04-14T04:09:56.216Z,0.00
2019-04-14T04:10:55.795Z,0.00
2019-04-14T04:11:56.830Z,4.00
2019-04-14T04:12:55.764Z,4.00
2019-04-14T04:13:56.378Z,0.00
2019-04-14T04:14:55.740Z,4.00
2019-04-14T04:15:56.226Z,4.00
2019-04-14T04:16:55.731Z,4.00
2019-04-14T04:17:55.919Z,8.00
2019-04-14T04:19:02.705Z,4.00
2019-04-14T04:19:57.768Z,8.00
2019-04-14T04:20:56.638Z,8.00
2019-04-14T04:21:55.659Z,8.00
2019-04-14T04:22:56.561Z,12.00
2019-04-14T04:23:55.644Z,12.00
2019-04-14T04:25:57.274Z,16.00
2019-04-14T04:26:56.736Z,16.00
2019-04-14T04:27:56.688Z,20.00
2019-04-14T04:28:56.235Z,24.00
2019-04-14T04:29:55.571Z,24.00
2019-04-14T04:30:55.934Z,28.00
2019-04-14T04:31:56.751Z,32.00
2019-04-14T04:32:55.897Z,36.00
2019-04-14T04:33:56.537Z,36.00
2019-04-14T04:34:55.650Z,44.00
2019-04-14T04:35:56.465Z,48.00
2019-04-14T04:36:55.684Z,52.00
2019-04-14T04:37:56.339Z,56.00
2019-04-14T04:38:55.556Z,56.00
2019-04-14T04:39:56.148Z,64.00
2019-04-14T04:41:56.520Z,68.00
2019-04-14T04:43:56.473Z,80.00
2019-04-14T04:44:55.488Z,88.00
2019-04-14T04:45:55.929Z,92.00
2019-04-14T04:46:55.531Z,104.00
2019-04-14T04:47:55.653Z,108.00
2019-04-14T04:49:57.500Z,128.00
2019-04-14T04:50:56.401Z,144.00
2019-04-14T04:51:55.332Z,156.00
2019-04-14T04:52:56.194Z,168.00
2019-04-14T04:53:55.314Z,180.00
2019-04-14T04:54:55.899Z,188.00
2019-04-14T04:55:55.293Z,204.00
2019-04-14T04:57:56.660Z,224.00
2019-04-14T04:58:55.390Z,240.00
2019-04-14T04:59:56.146Z,252.00
2019-04-14T05:00:57.354Z,264.00
2019-04-14T05:01:55.907Z,276.00
2019-04-14T05:02:55.336Z,288.00
2019-04-14T05:03:55.712Z,304.00
2019-04-14T05:04:55.324Z,312.00
2019-04-14T05:05:55.743Z,328.00
2019-04-14T05:06:55.241Z,344.00
2019-04-14T05:07:55.468Z,360.00
2019-04-14T05:08:55.290Z,376.00
2019-04-14T05:09:55.601Z,388.00
2019-04-14T05:11:56.724Z,416.00
2019-04-14T05:12:56.418Z,432.00
2019-04-14T05:13:55.350Z,444.00
2019-04-14T05:14:55.184Z,460.00
2019-04-14T05:15:55.301Z,472.00
2019-04-14T05:16:55.199Z,488.00
2019-04-14T05:17:55.950Z,500.00
2019-04-14T05:18:55.256Z,516.00
2019-04-14T05:19:56.136Z,528.00
2019-04-14T05:20:55.468Z,544.00
2019-04-14T05:21:55.949Z,556.00
2019-04-14T05:22:55.094Z,572.00
2019-04-14T05:23:56.047Z,584.00
2019-04-14T05:24:55.074Z,600.00
2019-04-14T05:25:56.089Z,612.00
2019-04-14T05:26:55.077Z,624.00
2019-04-14T05:27:55.842Z,640.00
2019-04-14T05:28:57.012Z,656.00
2019-04-14T05:29:55.863Z,668.00
2019-04-14T05:30:55.025Z,684.00
2019-04-14T05:31:55.542Z,696.00
2019-04-14T05:32:55.029Z,708.00
2019-04-14T05:33:55.478Z,724.00
2019-04-14T05:34:54.964Z,736.00
2019-04-14T05:35:55.324Z,748.00
2019-04-14T05:36:54.948Z,764.00
2019-04-14T05:37:55.089Z,776.00
2019-04-14T05:38:55.961Z,788.00
2019-04-14T05:39:54.888Z,800.00
2019-04-14T05:40:56.109Z,808.00
2019-04-14T05:42:04.130Z,824.00
2019-04-14T05:42:55.930Z,836.00
2019-04-14T05:43:58.908Z,844.00
2019-04-14T05:44:55.874Z,860.00
2019-04-14T05:45:54.798Z,868.00
2019-04-14T05:46:55.732Z,876.00
2019-04-14T05:47:54.823Z,888.00
2019-04-14T05:48:55.774Z,896.00
2019-04-14T05:49:56.536Z,912.00
2019-04-14T05:50:55.484Z,920.00
2019-04-14T05:51:54.730Z,936.00
2019-04-14T05:52:55.700Z,948.00
2019-04-14T05:53:54.764Z,960.00
2019-04-14T05:54:55.798Z,972.00
2019-04-14T05:55:54.810Z,988.00
2019-04-14T05:56:55.752Z,1000.00
2019-04-14T05:57:54.690Z,1012.00
2019-04-14T05:58:55.690Z,1024.00
2019-04-14T05:59:54.845Z,1036.00
2019-04-14T06:00:55.736Z,1052.00
2019-04-14T06:01:54.717Z,1068.00
2019-04-14T06:02:55.176Z,1080.00
2019-04-14T06:03:56.017Z,1088.00
2019-04-14T06:04:55.059Z,1104.00
2019-04-14T06:05:54.791Z,1116.00
2019-04-14T06:06:54.618Z,1128.00
2019-04-14T06:07:55.602Z,1144.00
2019-04-14T06:08:54.562Z,1156.00
2019-04-14T06:09:54.928Z,1164.00
2019-04-14T06:10:54.666Z,1180.00
2019-04-14T06:11:54.748Z,1192.00
2019-04-14T06:12:54.498Z,1204.00
2019-04-14T06:13:55.039Z,1224.00
2019-04-14T06:14:54.534Z,1232.00
2019-04-14T06:16:09.102Z,1252.00
2019-04-14T06:16:54.566Z,1256.00
2019-04-14T06:18:15.528Z,1276.00
2019-04-14T06:18:54.502Z,1292.00
2019-04-14T06:19:54.894Z,1308.00
2019-04-14T06:20:54.428Z,1324.00
2019-04-14T06:21:54.663Z,1340.00
2019-04-14T06:22:54.549Z,1320.00
2019-04-14T06:24:15.445Z,1348.00
2019-04-14T06:24:54.506Z,1360.00
2019-04-14T06:26:16.183Z,1384.00
2019-04-14T06:26:54.490Z,1392.00
2019-04-14T06:28:15.501Z,1408.00
2019-04-14T06:28:54.429Z,1408.00
2019-04-14T06:30:15.429Z,1428.00
2019-04-14T06:30:54.484Z,1384.00
2019-04-14T06:31:54.395Z,1384.00
2019-04-14T06:32:54.263Z,1448.00
2019-04-14T06:33:54.298Z,1452.00
2019-04-14T06:34:54.239Z,1420.00
2019-04-14T06:35:54.350Z,1420.00
2019-04-14T06:36:54.248Z,1528.00
2019-04-14T06:37:54.390Z,1564.00
2019-04-14T06:38:54.216Z,1504.00
2019-04-14T06:39:54.252Z,1520.00
2019-04-14T06:40:54.178Z,1444.00
2019-04-14T06:41:54.285Z,1568.00
2019-04-14T06:42:54.165Z,1548.00
2019-04-14T06:43:54.277Z,1480.00
2019-04-14T06:44:54.130Z,1564.00
2019-04-14T06:45:54.183Z,1516.00
2019-04-14T06:46:54.152Z,1556.00
2019-04-14T06:47:54.211Z,1620.00
2019-04-14T06:48:54.091Z,1704.00
2019-04-14T06:49:54.104Z,1712.00
2019-04-14T06:50:54.075Z,1664.00
2019-04-14T06:51:54.162Z,1596.00
2019-04-14T06:52:54.047Z,1676.00
2019-04-14T06:53:54.134Z,1760.00
2019-04-14T06:54:54.044Z,1800.00
2019-04-14T06:55:55.117Z,1612.00
2019-04-14T06:56:54.044Z,1732.00
2019-04-14T06:57:54.063Z,1708.00
2019-04-14T06:58:53.982Z,1740.00
2019-04-14T06:59:54.076Z,1772.00
2019-04-14T07:00:53.973Z,1744.00
2019-04-14T07:01:54.031Z,1736.00
2019-04-14T07:02:53.949Z,1772.00
2019-04-14T07:03:54.000Z,1924.00
2019-04-14T07:04:53.921Z,2256.00
2019-04-14T07:05:54.014Z,1924.00
2019-04-14T07:06:53.932Z,1820.00
2019-04-14T07:07:57.128Z,1840.00
2019-04-14T07:08:53.883Z,1940.00
2019-04-14T07:09:53.941Z,1904.00
2019-04-14T07:10:53.900Z,1864.00
2019-04-14T07:11:54.059Z,1716.00
2019-04-14T07:12:53.848Z,1860.00
2019-04-14T07:13:53.872Z,1896.00
2019-04-14T07:14:53.810Z,1972.00
2019-04-14T07:15:53.888Z,2196.00
2019-04-14T07:16:58.467Z,1968.00
2019-04-14T07:17:53.826Z,2024.00
2019-04-14T07:18:53.800Z,2344.00
2019-04-14T07:20:01.883Z,2032.00
2019-04-14T07:20:54.765Z,2024.00
2019-04-14T07:21:53.752Z,1916.00
2019-04-14T07:22:53.749Z,1868.00
2019-04-14T07:24:54.766Z,2184.00
2019-04-14T07:25:53.719Z,2076.00
2019-04-14T07:26:53.685Z,2072.00
2019-04-14T07:27:53.714Z,2104.00
2019-04-14T07:28:56.908Z,2100.00
2019-04-14T07:29:53.674Z,2244.00
2019-04-14T07:30:53.636Z,2092.00
2019-04-14T07:31:53.632Z,2088.00
2019-04-14T07:32:53.648Z,2148.00
2019-04-14T07:33:53.642Z,2244.00
2019-04-14T07:34:53.600Z,2276.00
2019-04-14T07:35:53.591Z,2316.00
2019-04-14T07:36:53.578Z,2632.00
2019-04-14T07:37:53.611Z,2084.00
2019-04-14T07:38:53.552Z,2276.00
2019-04-14T07:40:54.585Z,2344.00
2019-04-14T07:41:53.536Z,2160.00
2019-04-14T07:42:53.536Z,2160.00
2019-04-14T07:43:53.518Z,1872.00
2019-04-14T07:44:53.483Z,2148.00
2019-04-14T07:45:53.484Z,2124.00
2019-04-14T07:46:53.467Z,2080.00
2019-04-14T07:47:53.526Z,2152.00
2019-04-14T07:48:53.487Z,1868.00
2019-04-14T07:49:53.488Z,2284.00
2019-04-14T07:50:53.433Z,2176.00
2019-04-14T07:51:53.488Z,2132.00
2019-04-14T07:52:53.429Z,2324.00
2019-04-14T07:53:53.421Z,2504.00
2019-04-14T07:54:53.374Z,2392.00
2019-04-14T07:56:54.410Z,2544.00
2019-04-14T07:57:53.386Z,2256.00
2019-04-14T07:58:53.368Z,2336.00
2019-04-14T07:59:53.389Z,2420.00
2019-04-14T08:00:53.322Z,2376.00
2019-04-14T08:01:53.310Z,2432.00
2019-04-14T08:02:53.326Z,2512.00
2019-04-14T08:03:53.293Z,2340.00
2019-04-14T08:04:53.303Z,2300.00
2019-04-14T08:05:53.276Z,2308.00
2019-04-14T08:06:53.257Z,2304.00
2019-04-14T08:07:53.245Z,2304.00
2019-04-14T08:08:53.221Z,2312.00
2019-04-14T08:09:53.224Z,2308.00
2019-04-14T08:10:53.235Z,2304.00
2019-04-14T08:11:53.194Z,2312.00
2019-04-14T08:12:53.187Z,2332.00
2019-04-14T08:13:53.211Z,2320.00
2019-04-14T08:14:53.159Z,2292.00
2019-04-14T08:15:53.156Z,2352.00
2019-04-14T08:16:53.145Z,2348.00
2019-04-14T08:17:53.133Z,2344.00
2019-04-14T08:18:53.178Z,2348.00
2019-04-14T08:19:53.112Z,2376.00
2019-04-14T08:20:53.105Z,2380.00
2019-04-14T08:21:53.092Z,2376.00
2019-04-14T08:22:53.075Z,2392.00
2019-04-14T08:23:53.083Z,2384.00
2019-04-14T08:24:53.111Z,2404.00
2019-04-14T08:25:53.094Z,2408.00
2019-04-14T08:26:53.045Z,2408.00
2019-04-14T08:27:53.037Z,2420.00
2019-04-14T08:28:53.014Z,2424.00
2019-04-14T08:29:53.042Z,2432.00
2019-04-14T08:30:53.019Z,2428.00
2019-04-14T08:31:52.981Z,2436.00
2019-04-14T08:32:52.966Z,2440.00
2019-04-14T08:33:52.988Z,2460.00
2019-04-14T08:34:52.984Z,2452.00
2019-04-14T08:35:52.934Z,2468.00
2019-04-14T08:36:52.925Z,2480.00
2019-04-14T08:37:52.922Z,2496.00
2019-04-14T08:38:52.943Z,2504.00
2019-04-14T08:39:52.924Z,2504.00
2019-04-14T08:40:52.878Z,2516.00
2019-04-14T08:41:52.880Z,2500.00
2019-04-14T08:42:52.894Z,2536.00
2019-04-14T08:43:52.871Z,2544.00
2019-04-14T08:44:52.861Z,2544.00
2019-04-14T08:45:52.835Z,2548.00
2019-04-14T08:46:52.816Z,2556.00
2019-04-14T08:47:52.816Z,2560.00
2019-04-14T08:48:52.794Z,2560.00
2019-04-14T08:49:52.840Z,2584.00
2019-04-14T08:50:52.781Z,2576.00
2019-04-14T08:51:52.810Z,2412.00
2019-04-14T08:52:52.754Z,2008.00
2019-04-14T08:53:52.761Z,2604.00
2019-04-14T08:54:52.769Z,2604.00
2019-04-14T08:55:52.732Z,2612.00
2019-04-14T08:56:52.707Z,2600.00
2019-04-14T08:58:53.735Z,2644.00
2019-04-14T08:59:52.717Z,2288.00
2019-04-14T09:00:52.666Z,2672.00
2019-04-14T09:01:52.671Z,2652.00
2019-04-14T09:02:52.645Z,2688.00
2019-04-14T09:03:52.640Z,2668.00
2019-04-14T09:04:52.622Z,2684.00
2019-04-14T09:05:52.647Z,2708.00
2019-04-14T09:06:52.616Z,2700.00
2019-04-14T09:07:52.609Z,2752.00
2019-04-14T09:08:52.623Z,2376.00
2019-04-14T09:09:52.579Z,2824.00
2019-04-14T09:10:52.681Z,2732.00
2019-04-14T09:11:53.590Z,2760.00
2019-04-14T09:12:52.563Z,2752.00
2019-04-14T09:13:52.554Z,2752.00
2019-04-14T09:14:57.341Z,2760.00
2019-04-14T09:15:53.532Z,2760.00
2019-04-14T09:16:52.489Z,2764.00
2019-04-14T09:17:52.490Z,2768.00
2019-04-14T09:18:53.737Z,2780.00
2019-04-14T09:19:52.488Z,2780.00
2019-04-14T09:20:52.916Z,2860.00
2019-04-14T09:21:52.451Z,2820.00
2019-04-14T09:22:52.434Z,2824.00
2019-04-14T09:24:53.459Z,2820.00
2019-04-14T09:25:53.454Z,2828.00
2019-04-14T09:26:52.402Z,2860.00
2019-04-14T09:27:52.400Z,2964.00
2019-04-14T09:28:52.382Z,2888.00
2019-04-14T09:29:52.602Z,2860.00
2019-04-14T09:30:52.364Z,2848.00
2019-04-14T09:31:52.368Z,2860.00
2019-04-14T09:32:52.319Z,2868.00
2019-04-14T09:33:52.319Z,2880.00
2019-04-14T09:34:52.305Z,2884.00
2019-04-14T09:35:52.303Z,2872.00
2019-04-14T09:36:52.312Z,2920.00
2019-04-14T09:37:52.273Z,2880.00
2019-04-14T09:38:52.251Z,2924.00
2019-04-14T09:39:52.249Z,2856.00
2019-04-14T09:40:52.261Z,2936.00
2019-04-14T09:41:52.261Z,2920.00
2019-04-14T09:42:52.238Z,3088.00
2019-04-14T09:43:52.211Z,3108.00
2019-04-14T09:44:52.197Z,2964.00
2019-04-14T09:45:52.199Z,2952.00
2019-04-14T09:46:52.222Z,2988.00
2019-04-14T09:47:52.169Z,2972.00
2019-04-14T09:48:52.141Z,2996.00
2019-04-14T09:49:52.131Z,2984.00
2019-04-14T09:51:03.908Z,3004.00
2019-04-14T09:51:53.168Z,3108.00
2019-04-14T09:52:52.112Z,3376.00
2019-04-14T09:53:52.104Z,3580.00
2019-04-14T09:54:52.087Z,3364.00
2019-04-14T09:55:52.064Z,3076.00
2019-04-14T09:56:52.086Z,3104.00
2019-04-14T09:57:52.106Z,3264.00
2019-04-14T09:58:52.048Z,3076.00
2019-04-14T09:59:52.032Z,3052.00
2019-04-14T10:00:52.048Z,3060.00
2019-04-14T10:01:52.032Z,3048.00
2019-04-14T10:02:52.028Z,3044.00
2019-04-14T10:03:52.215Z,2996.00
2019-04-14T10:05:53.046Z,3080.00
2019-04-14T10:06:52.293Z,3164.00
2019-04-14T10:07:52.622Z,3268.00
2019-04-14T10:08:52.041Z,3224.00
2019-04-14T10:09:52.156Z,3240.00
2019-04-14T10:10:52.117Z,4000.00
2019-04-14T10:11:56.001Z,3828.00
2019-04-14T10:12:51.924Z,3272.00
2019-04-14T10:13:51.863Z,3324.00
2019-04-14T10:14:51.864Z,3208.00
2019-04-14T10:15:51.857Z,2888.00
2019-04-14T10:16:51.849Z,3228.00
2019-04-14T10:17:51.863Z,3204.00
2019-04-14T10:18:51.817Z,3476.00
2019-04-14T10:19:51.809Z,2836.00
2019-04-14T10:20:51.802Z,3648.00
2019-04-14T10:21:51.788Z,3532.00
2019-04-14T10:22:51.816Z,3440.00
2019-04-14T10:23:51.757Z,3740.00
2019-04-14T10:24:51.752Z,3712.00
2019-04-14T10:25:51.734Z,3968.00
2019-04-14T10:26:51.737Z,3688.00
2019-04-14T10:27:51.759Z,3788.00
2019-04-14T10:28:51.709Z,2628.00
2019-04-14T10:29:51.703Z,2720.00
2019-04-14T10:30:51.690Z,3832.00
2019-04-14T10:31:51.689Z,3876.00
2019-04-14T10:32:51.682Z,3120.00
2019-04-14T10:33:51.673Z,3660.00
2019-04-14T10:34:51.677Z,3744.00
2019-04-14T10:35:51.625Z,3028.00
2019-04-14T10:36:51.621Z,4000.00
2019-04-14T10:37:51.606Z,4072.00
2019-04-14T10:38:51.696Z,4040.00
2019-04-14T10:39:51.586Z,3720.00
2019-04-14T10:40:51.571Z,3740.00
2019-04-14T10:41:51.570Z,3856.00
2019-04-14T10:42:51.554Z,3792.00
2019-04-14T10:43:51.589Z,4008.00
2019-04-14T10:44:51.547Z,4284.00
2019-04-14T10:45:51.526Z,3816.00
2019-04-14T10:46:51.522Z,2684.00
2019-04-14T10:47:51.513Z,3116.00
2019-04-14T10:48:51.602Z,2652.00
2019-04-14T10:49:51.493Z,2648.00
2019-04-14T10:50:51.475Z,3652.00
2019-04-14T10:51:51.450Z,3156.00
2019-04-14T10:52:51.448Z,3776.00
2019-04-14T10:53:51.454Z,2956.00
2019-04-14T10:54:51.431Z,2976.00
2019-04-14T10:55:51.424Z,3184.00
2019-04-14T10:56:51.405Z,3076.00
2019-04-14T10:57:51.384Z,3108.00
2019-04-14T10:58:51.503Z,3128.00
2019-04-14T10:59:51.398Z,3196.00
2019-04-14T11:00:51.360Z,3048.00
2019-04-14T11:01:51.341Z,3020.00
2019-04-14T11:02:51.337Z,2992.00
2019-04-14T11:03:51.322Z,2848.00
2019-04-14T11:04:51.382Z,2884.00
2019-04-14T11:05:51.311Z,4076.00
2019-04-14T11:06:51.293Z,4492.00
2019-04-14T11:07:51.284Z,4920.00
2019-04-14T11:08:51.296Z,5608.00
2019-04-14T11:09:53.840Z,5996.00
2019-04-14T11:10:51.255Z,6224.00
2019-04-14T11:11:51.238Z,6388.00
2019-04-14T11:12:51.230Z,6184.00
2019-04-14T11:13:51.222Z,5420.00
2019-04-14T11:14:51.283Z,3900.00
2019-04-14T11:15:51.187Z,4048.00
2019-04-14T11:16:51.178Z,3916.00
2019-04-14T11:17:51.165Z,4232.00
2019-04-14T11:18:51.177Z,4416.00
2019-04-14T11:19:51.179Z,4820.00
2019-04-14T11:20:51.145Z,4596.00
2019-04-14T11:21:51.139Z,4408.00
2019-04-14T11:23:02.724Z,3748.00
2019-04-14T11:23:52.107Z,3892.00
2019-04-14T11:24:51.123Z,3920.00
2019-04-14T11:25:51.078Z,3612.00
2019-04-14T11:26:51.073Z,4840.00
2019-04-14T11:27:51.064Z,5112.00
2019-04-14T11:28:51.063Z,5064.00
2019-04-14T11:29:53.956Z,4852.00
2019-04-14T11:30:51.057Z,3444.00
2019-04-14T11:31:51.015Z,3244.00
2019-04-14T11:32:51.026Z,4216.00
2019-04-14T11:33:50.989Z,4120.00
2019-04-14T11:34:50.988Z,3376.00
2019-04-14T11:35:51.006Z,4572.00
2019-04-14T11:36:50.971Z,5316.00
2019-04-14T11:37:50.960Z,4684.00
2019-04-14T11:38:50.960Z,6052.00
2019-04-14T11:39:50.943Z,6124.00
2019-04-14T11:40:51.944Z,5576.00
2019-04-14T11:41:50.923Z,4988.00
2019-04-14T11:42:52.436Z,4508.00
2019-04-14T11:43:50.884Z,4164.00
2019-04-14T11:44:50.893Z,3988.00
2019-04-14T11:45:50.889Z,3576.00
2019-04-14T11:46:50.874Z,3844.00
2019-04-14T11:47:50.842Z,3972.00
2019-04-14T11:48:50.844Z,4932.00
2019-04-14T11:49:50.818Z,3588.00
2019-04-14T11:50:50.859Z,3436.00
2019-04-14T11:51:55.395Z,3208.00
2019-04-14T11:52:51.804Z,3612.00
2019-04-14T11:53:50.776Z,3524.00
2019-04-14T11:54:50.765Z,4232.00
2019-04-14T11:55:50.786Z,3512.00
2019-04-14T11:56:50.757Z,3204.00
2019-04-14T11:57:50.756Z,2936.00
2019-04-14T11:58:50.725Z,2976.00
2019-04-14T11:59:50.738Z,3296.00
2019-04-14T12:00:50.716Z,3572.00
2019-04-14T12:01:50.709Z,3604.00
2019-04-14T12:02:50.681Z,3624.00
2019-04-14T12:03:50.671Z,4240.00
2019-04-14T12:04:50.672Z,4192.00
2019-04-14T12:05:50.676Z,4656.00
2019-04-14T12:06:50.674Z,4580.00
2019-04-14T12:07:50.628Z,4724.00
2019-04-14T12:08:50.620Z,4488.00
2019-04-14T12:09:50.598Z,4444.00
2019-04-14T12:10:50.600Z,4620.00
2019-04-14T12:11:50.611Z,4684.00
2019-04-14T12:12:50.584Z,5120.00
2019-04-14T12:13:50.565Z,5716.00
2019-04-14T12:14:50.546Z,5816.00
2019-04-14T12:15:50.536Z,4748.00
2019-04-14T12:16:50.550Z,3976.00
2019-04-14T12:17:50.514Z,3768.00
2019-04-14T12:18:50.509Z,4540.00
2019-04-14T12:19:50.491Z,3568.00
2019-04-14T12:20:50.499Z,3936.00
2019-04-14T12:21:50.505Z,4648.00
2019-04-14T12:22:50.497Z,5448.00
2019-04-14T12:23:50.456Z,5028.00
2019-04-14T12:24:50.446Z,4928.00
2019-04-14T12:25:50.429Z,5052.00
2019-04-14T12:26:50.446Z,4696.00
2019-04-14T12:27:51.309Z,5324.00
2019-04-14T12:28:51.492Z,4540.00
2019-04-14T12:29:50.377Z,3952.00
2019-04-14T12:30:51.159Z,3820.00
2019-04-14T12:31:50.952Z,4108.00
2019-04-14T12:32:50.374Z,4488.00
2019-04-14T12:33:50.339Z,4628.00
2019-04-14T12:34:50.339Z,4580.00
2019-04-14T12:35:50.325Z,4820.00
2019-04-14T12:36:50.342Z,4612.00
2019-04-14T12:37:50.295Z,4344.00
2019-04-14T12:38:50.301Z,4316.00
2019-04-14T12:39:50.282Z,4104.00
2019-04-14T12:40:50.278Z,4224.00
2019-04-14T12:41:50.284Z,4068.00
2019-04-14T12:42:50.242Z,3524.00
2019-04-14T12:43:50.231Z,4120.00
2019-04-14T12:44:50.225Z,5392.00
2019-04-14T12:45:50.211Z,5708.00
2019-04-14T12:46:50.196Z,5480.00
2019-04-14T12:47:50.212Z,5960.00
2019-04-14T12:48:50.196Z,5520.00
2019-04-14T12:49:50.164Z,5084.00
2019-04-14T12:50:50.159Z,5112.00
2019-04-14T12:51:50.147Z,4900.00
2019-04-14T12:52:50.180Z,4584.00
2019-04-14T12:53:50.118Z,4344.00
2019-04-14T12:55:51.145Z,4512.00
2019-04-14T12:56:50.104Z,4416.00
2019-04-14T12:57:50.121Z,5028.00
2019-04-14T12:58:50.075Z,5140.00
2019-04-14T12:59:50.055Z,5320.00
2019-04-14T13:00:50.065Z,5612.00
2019-04-14T13:01:50.042Z,5512.00
2019-04-14T13:02:50.075Z,5260.00
2019-04-14T13:03:50.012Z,5212.00
2019-04-14T13:04:50.003Z,5112.00